Time;durP1;ratioP1;P1;durP2;ratioP2;P2;SDS_P1;SDS_P2;PMS_P1;PMS_P2;Temp;Humidity;BMP_temperature;BMP_pressure;BME280_temperature;BME280_humidity;BME280_pressure;Samples;Min_cycle;Max_cycle;Signal;HPM_P1;HPM_P2
2023/09/17 00:02:28;;;;;;;20.58;18.60;;;21.50;72.20;;;;;;4013083;29;20125;-49
2023/09/17 00:05:09;;;;;;;;;;;21.50;72.20;;;;;;4012962;29;20056;-50
2023/09/17 00:07:51;;;;;;;21.75;19.48;;;21.50;72.30;;;;;;4013404;29;19951;-53
2023/09/17 00:10:33;;;;;;;19.73;17.92;;;21.50;73.40;;;;;;4012595;29;20064;-51
2023/09/17 00:13:14;;;;;;;20.17;18.13;;;21.40;72.30;;;;;;4012733;29;20151;-50
2023/09/17 00:15:55;;;;;;;23.70;19.85;;;21.50;72.30;;;;;;4012874;29;20187;-51
2023/09/17 00:18:35;;;;;;;20.83;18.90;;;21.50;72.20;;;;;;4013395;29;20064;-50
2023/09/17 00:21:16;;;;;;;19.80;17.80;;;21.40;72.20;;;;;;4013328;29;20082;-53
2023/09/17 00:23:57;;;;;;;19.55;17.75;;;21.50;72.30;;;;;;4001370;29;20064;-54
2023/09/17 00:26:40;;;;;;;20.58;17.95;;;21.40;72.20;;;;;;4012720;29;20194;-52
2023/09/17 00:29:23;;;;;;;20.65;18.55;;;21.40;72.10;;;;;;4012903;29;20060;-53
2023/09/17 00:32:04;;;;;;;19.77;17.83;;;21.40;72.10;;;;;;4013131;29;20142;-51
2023/09/17 00:34:45;;;;;;;;;;;21.40;72.00;;;;;;4013096;29;20080;-51
2023/09/17 00:37:26;;;;;;;17.23;15.52;;;21.40;72.00;;;;;;4008936;29;19982;-51
2023/09/17 00:40:09;;;;;;;;;;;21.40;72.50;;;;;;4013333;29;20055;-52
2023/09/17 00:42:52;;;;;;;15.43;13.93;;;21.40;72.50;;;;;;4012777;29;20319;-54
2023/09/17 00:45:33;;;;;;;16.13;14.52;;;21.40;72.80;;;;;;4002055;29;20067;-52
2023/09/17 00:48:15;;;;;;;17.25;15.45;;;21.40;72.50;;;;;;4012700;29;20048;-49
2023/09/17 00:50:56;;;;;;;;;;;21.40;72.40;;;;;;4002211;29;20058;-50
2023/09/17 00:53:40;;;;;;;16.48;14.35;;;21.40;72.30;;;;;;4012828;29;19983;-50
2023/09/17 00:56:22;;;;;;;17.65;15.75;;;21.30;72.70;;;;;;4001423;29;20064;-51
2023/09/17 00:59:06;;;;;;;17.08;15.38;;;21.30;72.50;;;;;;4011726;29;20186;-51
2023/09/17 01:01:48;;;;;;;16.88;15.13;;;21.30;72.30;;;;;;4011836;29;20064;-50
2023/09/17 01:04:29;;;;;;;16.08;14.57;;;21.30;72.40;;;;;;4012035;29;20101;-50
2023/09/17 01:07:11;;;;;;;16.17;14.57;;;21.30;72.80;;;;;;4011747;29;20052;-49
2023/09/17 01:09:52;;;;;;;17.52;15.63;;;21.30;72.40;;;;;;4005611;29;20083;-51
2023/09/17 01:12:33;;;;;;;;;;;21.30;72.40;;;;;;4013273;29;20064;-52
2023/09/17 01:15:16;;;;;;;18.15;16.15;;;21.20;72.20;;;;;;4012699;29;19935;-54
2023/09/17 01:17:57;;;;;;;16.67;14.95;;;21.20;72.30;;;;;;4000375;29;20061;-53
2023/09/17 01:20:45;;;;;;;17.08;15.45;;;21.20;73.00;;;;;;4011124;29;20052;-52
2023/09/17 01:23:30;;;;;;;16.65;14.93;;;21.20;72.10;;;;;;4012173;29;20420;-52
2023/09/17 01:26:16;;;;;;;17.13;15.48;;;21.20;72.20;;;;;;4011650;29;20088;-53
2023/09/17 01:28:59;;;;;;;16.98;15.30;;;21.20;72.40;;;;;;3996484;29;20069;-54
2023/09/17 01:31:40;;;;;;;16.70;15.07;;;21.20;72.60;;;;;;4001035;29;20171;-54
2023/09/17 01:34:22;;;;;;;18.17;14.82;;;21.20;72.70;;;;;;4012429;29;20077;-51
2023/09/17 01:37:07;;;;;;;16.80;15.00;;;21.20;72.70;;;;;;4011543;29;20409;-50
2023/09/17 01:39:56;;;;;;;17.10;15.30;;;21.20;72.70;;;;;;3986861;29;20053;-50
2023/09/17 01:42:39;;;;;;;16.67;14.95;;;21.20;72.60;;;;;;3985985;29;20180;-50
2023/09/17 01:45:22;;;;;;;17.05;15.25;;;21.20;72.70;;;;;;3997016;29;20191;-50
2023/09/17 01:48:04;;;;;;;17.90;15.95;;;21.20;72.70;;;;;;4020962;29;20051;-51
2023/09/17 01:50:47;;;;;;;18.88;16.88;;;21.20;72.70;;;;;;4016144;29;20516;-51
2023/09/17 01:53:28;;;;;;;16.35;14.60;;;21.20;72.70;;;;;;4026849;29;20075;-50
2023/09/17 01:56:09;;;;;;;;;;;21.10;72.80;;;;;;4027048;29;20055;-50
2023/09/17 01:58:50;;;;;;;18.10;16.23;;;21.10;72.90;;;;;;3996245;29;19946;-50
2023/09/17 02:01:33;;;;;;;17.98;16.23;;;21.10;73.20;;;;;;3985830;29;20181;-50
2023/09/17 02:04:14;;;;;;;16.35;14.65;;;21.10;73.10;;;;;;3996365;29;20056;-50
2023/09/17 02:06:55;;;;;;;17.48;15.88;;;21.10;72.90;;;;;;4001310;29;20448;-51
2023/09/17 02:09:35;;;;;;;17.50;15.85;;;21.10;72.90;;;;;;4011970;29;20512;-52
2023/09/17 02:12:17;;;;;;;17.48;15.82;;;21.10;72.90;;;;;;4011613;29;20145;-51
2023/09/17 02:14:58;;;;;;;;;;;21.10;73.10;;;;;;4011086;29;20581;-52
2023/09/17 02:17:42;;;;;;;16.40;14.43;;;21.10;73.20;;;;;;4011492;29;19947;-50
2023/09/17 02:20:23;;;;;;;17.20;15.40;;;21.10;73.50;;;;;;4000334;29;20061;-50
2023/09/17 02:23:04;;;;;;;;;;;21.10;73.30;;;;;;4000364;29;20052;-50
2023/09/17 02:25:46;;;;;;;18.13;16.33;;;21.10;73.30;;;;;;4011476;29;19931;-51
2023/09/17 02:28:28;;;;;;;17.60;15.95;;;21.00;73.60;;;;;;3987501;29;20074;-52
2023/09/17 02:31:09;;;;;;;19.15;17.27;;;21.00;73.40;;;;;;4009519;29;20045;-52
2023/09/17 02:33:51;;;;;;;17.83;16.00;;;21.00;73.30;;;;;;4011266;29;20133;-50
2023/09/17 02:36:34;;;;;;;18.50;16.70;;;21.00;72.50;;;;;;4010478;29;20489;-53
2023/09/17 02:39:15;;;;;;;17.67;15.98;;;21.00;73.40;;;;;;4010505;29;20049;-51
2023/09/17 02:41:59;;;;;;;17.83;16.13;;;21.00;73.40;;;;;;4010547;29;20413;-50
2023/09/17 02:44:40;;;;;;;16.95;15.35;;;21.00;73.40;;;;;;3999822;29;20060;-50
2023/09/17 02:47:20;;;;;;;17.67;16.00;;;21.00;73.30;;;;;;4010389;29;20060;-52
2023/09/17 02:50:04;;;;;;;;;;;21.00;73.30;;;;;;4010709;29;20516;-52
2023/09/17 02:52:45;;;;;;;17.92;16.17;;;21.00;73.30;;;;;;4010125;29;19931;-50
2023/09/17 02:55:26;;;;;;;17.98;16.20;;;21.00;73.70;;;;;;4010589;29;20084;-51
2023/09/17 02:58:07;;;;;;;18.38;16.58;;;21.00;73.60;;;;;;4009522;29;20088;-50
2023/09/17 03:00:49;;;;;;;17.85;16.05;;;21.00;73.60;;;;;;4009843;29;20110;-50
2023/09/17 03:03:30;;;;;;;17.50;15.68;;;21.00;73.70;;;;;;4010326;29;20509;-51
2023/09/17 03:06:13;;;;;;;17.80;16.15;;;21.00;73.70;;;;;;4009749;29;20068;-50
2023/09/17 03:08:56;;;;;;;16.73;15.00;;;21.00;73.70;;;;;;4010191;29;20057;-53
2023/09/17 03:11:39;;;;;;;17.00;15.43;;;21.00;74.50;;;;;;3984220;29;20065;-51
2023/09/17 03:14:21;;;;;;;16.77;15.27;;;21.00;73.70;;;;;;4007445;29;20504;-50
2023/09/17 03:17:03;;;;;;;;;;;21.00;73.60;;;;;;4010885;29;20060;-50
2023/09/17 03:19:44;;;;;;;17.85;16.13;;;20.90;73.60;;;;;;4009705;29;19935;-50
2023/09/17 03:22:26;;;;;;;17.00;15.27;;;20.90;73.80;;;;;;3999824;29;20109;-50
2023/09/17 03:25:08;;;;;;;16.73;15.02;;;20.90;74.60;;;;;;3984341;29;20053;-50
2023/09/17 03:27:49;;;;;;;18.35;16.58;;;20.90;73.80;;;;;;3996242;29;20133;-51
2023/09/17 03:30:31;;;;;;;18.10;16.30;;;20.90;73.70;;;;;;3997290;29;20437;-50
2023/09/17 03:33:14;;;;;;;17.52;15.82;;;20.90;74.50;;;;;;3997010;29;20417;-50
2023/09/17 03:35:59;;;;;;;17.27;15.55;;;20.90;73.70;;;;;;3992659;29;20528;-53
2023/09/17 03:38:42;;;;;;;16.40;14.55;;;20.90;73.70;;;;;;3997314;29;20080;-52
2023/09/17 03:41:25;;;;;;;15.60;14.00;;;20.90;73.80;;;;;;4012046;29;20400;-54
2023/09/17 03:44:06;;;;;;;15.32;13.80;;;20.90;73.90;;;;;;4001802;29;20064;-55
2023/09/17 03:46:47;;;;;;;;;;;20.90;74.00;;;;;;3991576;29;20068;-55
2023/09/17 03:49:29;;;;;;;15.85;14.25;;;20.90;73.90;;;;;;4011584;29;19950;-55
2023/09/17 03:52:11;;;;;;;15.02;13.63;;;20.80;74.10;;;;;;4001033;29;20504;-55
2023/09/17 03:54:54;;;;;;;15.35;13.82;;;20.80;74.10;;;;;;4011132;29;20069;-54
2023/09/17 03:57:36;;;;;;;15.27;13.98;;;20.80;74.10;;;;;;4000797;29;20516;-51
2023/09/17 04:00:18;;;;;;;14.65;13.25;;;20.80;74.00;;;;;;4000629;29;20191;-50
2023/09/17 04:03:00;;;;;;;;;;;20.80;74.10;;;;;;4001526;29;20060;-51
2023/09/17 04:05:41;;;;;;;13.88;12.60;;;20.80;74.00;;;;;;4001301;29;19931;-50
2023/09/17 04:08:24;;;;;;;16.02;14.35;;;20.80;74.30;;;;;;4012607;29;20060;-51
2023/09/17 04:11:06;;;;;;;15.50;13.98;;;20.80;74.20;;;;;;4012475;29;20404;-51
2023/09/17 04:13:47;;;;;;;16.52;14.88;;;20.80;74.30;;;;;;3997943;29;20121;-53
2023/09/17 04:16:28;;;;;;;17.25;15.15;;;20.80;74.30;;;;;;3998319;29;20453;-54
2023/09/17 04:19:09;;;;;;;16.27;14.77;;;20.80;74.40;;;;;;4000949;29;20097;-52
2023/09/17 04:21:50;;;;;;;16.88;15.10;;;20.80;74.40;;;;;;4012701;29;20505;-54
2023/09/17 04:24:32;;;;;;;15.68;14.07;;;20.80;74.50;;;;;;4011965;29;20110;-53
2023/09/17 04:27:15;;;;;;;;;;;20.80;74.90;;;;;;4012085;29;20503;-54
2023/09/17 04:29:56;;;;;;;14.98;13.55;;;20.80;74.60;;;;;;4001078;29;19991;-51
2023/09/17 04:32:39;;;;;;;16.02;14.32;;;20.80;74.70;;;;;;3989812;29;20060;-52
2023/09/17 04:35:21;;;;;;;17.05;15.25;;;20.80;74.90;;;;;;3998657;29;20108;-50
2023/09/17 04:38:02;;;;;;;;;;;20.70;74.90;;;;;;4013317;29;20072;-52
2023/09/17 04:40:45;;;;;;;16.27;14.70;;;20.70;75.00;;;;;;4000333;29;19935;-50
2023/09/17 04:43:28;;;;;;;;;;;20.70;75.10;;;;;;4012531;29;20405;-52
2023/09/17 04:46:10;;;;;;;15.02;13.52;;;20.70;75.20;;;;;;4001308;29;19980;-50
2023/09/17 04:48:52;;;;;;;15.65;14.20;;;20.70;75.30;;;;;;4011871;29;20485;-50
2023/09/17 04:51:33;;;;;;;14.05;12.93;;;20.70;75.40;;;;;;4011877;29;20068;-51
2023/09/17 04:54:14;;;;;;;14.07;12.82;;;20.70;75.40;;;;;;4001233;29;20083;-50
2023/09/17 04:56:56;;;;;;;15.55;14.05;;;20.70;75.50;;;;;;4011125;29;20060;-50
2023/09/17 04:59:38;;;;;;;20.10;16.17;;;20.70;75.60;;;;;;4010031;29;20064;-49
2023/09/17 05:02:21;;;;;;;18.25;16.35;;;20.70;75.70;;;;;;4005633;29;20770;-51
2023/09/17 05:05:02;;;;;;;16.02;14.43;;;20.70;76.20;;;;;;4011596;29;20093;-51
2023/09/17 05:07:43;;;;;;;15.70;14.30;;;20.70;76.30;;;;;;4011435;29;20064;-52
2023/09/17 05:10:25;;;;;;;17.33;15.65;;;20.80;76.30;;;;;;4011670;29;20065;-51
2023/09/17 05:13:07;;;;;;;17.17;15.48;;;20.80;76.20;;;;;;4011258;29;20091;-51
2023/09/17 05:15:49;;;;;;;16.60;14.93;;;20.80;76.20;;;;;;4012309;29;20464;-53
2023/09/17 05:18:31;;;;;;;18.45;14.70;;;20.80;76.30;;;;;;4011963;29;20064;-52
2023/09/17 05:21:12;;;;;;;18.20;15.18;;;20.80;76.40;;;;;;4011653;29;20060;-54
2023/09/17 05:23:53;;;;;;;;;;;20.70;76.40;;;;;;4001417;29;20424;-51
2023/09/17 05:26:34;;;;;;;15.88;14.30;;;20.70;76.50;;;;;;4011245;29;19939;-52
2023/09/17 05:29:16;;;;;;;16.58;13.55;;;20.70;76.50;;;;;;4000095;29;20413;-51
2023/09/17 05:32:01;;;;;;;16.90;15.30;;;20.70;76.60;;;;;;4012136;29;20060;-55
2023/09/17 05:34:44;;;;;;;17.10;15.50;;;20.70;76.60;;;;;;4000297;29;20057;-51
2023/09/17 05:37:26;;;;;;;16.65;15.05;;;20.70;76.70;;;;;;4000192;29;20413;-51
2023/09/17 05:40:08;;;;;;;;;;;20.70;76.80;;;;;;3985857;29;20413;-52
2023/09/17 05:42:49;;;;;;;16.40;14.82;;;20.70;76.80;;;;;;3996369;29;19935;-52
2023/09/17 05:45:29;;;;;;;16.48;14.98;;;20.70;76.70;;;;;;3985307;29;20134;-52
2023/09/17 05:48:13;;;;;;;16.33;14.73;;;20.70;77.00;;;;;;4010102;29;20060;-52
2023/09/17 05:50:54;;;;;;;18.95;16.17;;;20.70;77.20;;;;;;3999372;29;20068;-57
2023/09/17 05:53:37;;;;;;;17.63;15.73;;;20.70;77.20;;;;;;4011738;29;20202;-57
2023/09/17 05:56:19;;;;;;;;;;;20.70;77.40;;;;;;4011707;29;20061;-56
2023/09/17 05:59:00;;;;;;;17.85;16.00;;;20.70;77.40;;;;;;3999802;29;19936;-56
2023/09/17 06:01:41;;;;;;;18.38;16.50;;;20.70;77.20;;;;;;3988914;29;20072;-57
2023/09/17 06:04:24;;;;;;;22.10;18.13;;;20.70;77.50;;;;;;4010419;29;20068;-57
2023/09/17 06:07:04;;;;;;;21.20;18.98;;;20.70;78.00;;;;;;4011058;29;20346;-49
2023/09/17 06:09:46;;;;;;;20.38;18.15;;;20.70;77.90;;;;;;3999799;29;20117;-49
2023/09/17 06:12:27;;;;;;;22.20;19.90;;;20.70;77.90;;;;;;4011952;29;20076;-50
2023/09/17 06:15:09;;;;;;;21.52;19.23;;;20.70;78.10;;;;;;4010856;29;20507;-48
2023/09/17 06:17:51;;;;;;;22.05;19.17;;;20.70;78.30;;;;;;3998540;29;20060;-48
2023/09/17 06:20:34;;;;;;;;;;;20.70;78.60;;;;;;4010823;29;20060;-48
2023/09/17 06:23:15;;;;;;;22.40;19.92;;;20.70;78.70;;;;;;4010887;29;19951;-48
2023/09/17 06:25:56;;;;;;;22.58;20.10;;;20.70;78.50;;;;;;4011698;29;20052;-49
2023/09/17 06:28:37;;;;;;;24.75;20.88;;;20.70;78.90;;;;;;3999961;29;20057;-48
2023/09/17 06:31:19;;;;;;;23.65;21.35;;;20.70;79.20;;;;;;4000095;29;20101;-48
2023/09/17 06:34:00;;;;;;;23.48;21.00;;;20.70;79.50;;;;;;4010134;29;20049;-48
2023/09/17 06:36:43;;;;;;;22.77;20.58;;;20.70;80.00;;;;;;4009916;29;20457;-49
2023/09/17 06:39:24;;;;;;;22.67;20.38;;;20.70;80.30;;;;;;4000429;29;20072;-53
2023/09/17 06:42:07;;;;;;;22.73;20.25;;;20.70;80.40;;;;;;4002384;29;20076;-53
2023/09/17 06:44:48;;;;;;;23.63;20.60;;;20.70;80.70;;;;;;4011275;29;20056;-50
2023/09/17 06:47:29;;;;;;;23.15;20.65;;;20.60;80.70;;;;;;4009884;29;20064;-47
2023/09/17 06:50:11;;;;;;;23.33;19.90;;;20.60;81.10;;;;;;4013852;29;20060;-47
2023/09/17 06:52:53;;;;;;;;;;;20.60;81.80;;;;;;4006465;29;20060;-51
2023/09/17 06:55:35;;;;;;;23.45;20.67;;;20.60;81.50;;;;;;4019555;29;20291;-47
2023/09/17 06:58:16;;;;;;;;;;;20.60;81.70;;;;;;4011436;29;20068;-47
2023/09/17 07:00:57;;;;;;;;;;;20.60;81.90;;;;;;4014386;29;19935;-50
2023/09/17 07:03:39;;;;;;;24.35;20.75;;;20.60;81.50;;;;;;4014974;29;19967;-51
2023/09/17 07:06:21;;;;;;;23.75;21.30;;;20.60;82.10;;;;;;3990392;29;20059;-54
2023/09/17 07:09:04;;;;;;;22.92;20.65;;;20.60;82.90;;;;;;4014361;29;20056;-54
2023/09/17 07:11:44;;;;;;;23.38;21.13;;;20.60;83.60;;;;;;4029618;29;20060;-51
2023/09/17 07:14:25;;;;;;;23.80;21.25;;;20.60;83.70;;;;;;4014485;29;20480;-53
2023/09/17 07:17:06;;;;;;;23.38;20.90;;;20.60;84.00;;;;;;4014559;29;20055;-53
2023/09/17 07:19:47;;;;;;;23.67;20.45;;;20.60;84.10;;;;;;4015009;29;20183;-53
2023/09/17 07:22:29;;;;;;;;;;;20.60;84.40;;;;;;4014223;29;20057;-52
2023/09/17 07:25:12;;;;;;;24.58;21.98;;;20.60;84.40;;;;;;4014379;29;19931;-54
2023/09/17 07:27:52;;;;;;;24.55;21.83;;;20.60;84.40;;;;;;4013965;29;20056;-53
2023/09/17 07:30:34;;;;;;;24.17;21.73;;;20.60;84.90;;;;;;4013946;29;20081;-52
2023/09/17 07:33:15;;;;;;;24.67;22.00;;;20.60;85.00;;;;;;4014363;29;20057;-50
2023/09/17 07:35:56;;;;;;;25.50;22.23;;;20.60;85.30;;;;;;4014170;29;20061;-50
2023/09/17 07:38:38;;;;;;;25.10;22.58;;;20.60;85.40;;;;;;4003537;29;20101;-54
2023/09/17 07:41:20;;;;;;;;;;;20.60;85.70;;;;;;4014020;29;20100;-50
2023/09/17 07:44:01;;;;;;;25.13;22.42;;;20.60;85.60;;;;;;4013950;29;19935;-50
2023/09/17 07:46:42;;;;;;;24.75;22.25;;;20.60;85.30;;;;;;4013988;29;20057;-49
2023/09/17 07:49:27;;;;;;;27.33;24.60;;;20.60;85.80;;;;;;4014334;29;20065;-49
2023/09/17 07:52:08;;;;;;;25.30;22.70;;;20.60;86.00;;;;;;4013505;29;20056;-48
2023/09/17 07:54:49;;;;;;;28.15;25.17;;;20.60;86.80;;;;;;4014009;29;20108;-50
2023/09/17 07:57:31;;;;;;;26.45;23.75;;;20.70;86.80;;;;;;4002494;29;20048;-48
2023/09/17 08:00:15;;;;;;;28.13;25.33;;;20.70;87.40;;;;;;4013704;29;20097;-50
2023/09/17 08:02:56;;;;;;;26.38;23.70;;;20.60;87.50;;;;;;4014364;29;20064;-48
2023/09/17 08:05:36;;;;;;;27.00;24.20;;;20.60;87.60;;;;;;4013423;29;20136;-49
2023/09/17 08:08:18;;;;;;;26.85;24.10;;;20.60;88.10;;;;;;4013540;29;20056;-52
2023/09/17 08:10:59;;;;;;;23.45;21.17;;;20.60;87.30;;;;;;4013152;29;20137;-50
2023/09/17 08:13:41;;;;;;;25.42;21.98;;;20.70;88.10;;;;;;3997681;29;20065;-53
2023/09/17 08:16:23;;;;;;;23.52;21.00;;;20.70;87.70;;;;;;3999263;29;20178;-50
2023/09/17 08:19:05;;;;;;;22.85;20.60;;;20.60;87.90;;;;;;4013271;29;20058;-50
2023/09/17 08:21:46;;;;;;;24.25;21.65;;;20.70;88.20;;;;;;4013462;29;20417;-51
2023/09/17 08:24:27;;;;;;;21.60;19.20;;;20.70;88.50;;;;;;4014325;29;20114;-54
2023/09/17 08:27:28;;;;;;;21.40;19.05;;;20.70;88.10;;;;;;4012012;29;20105;-53
2023/09/17 08:30:31;;;;;;;21.00;18.70;;;20.70;87.80;;;;;;4011941;29;20056;-49
2023/09/17 08:33:32;;;;;;;19.52;17.52;;;20.70;88.00;;;;;;3996703;29;20074;-53
2023/09/17 08:36:22;;;;;;;20.20;17.33;;;20.70;87.80;;;;;;4002030;29;20185;-53
2023/09/17 08:39:06;;;;;;;20.17;18.08;;;20.70;87.80;;;;;;4013464;29;20516;-54
2023/09/17 08:41:48;;;;;;;18.95;16.77;;;20.70;87.80;;;;;;4012919;29;20060;-53
2023/09/17 08:44:32;;;;;;;18.85;17.05;;;20.70;87.90;;;;;;3997745;29;20053;-53
2023/09/17 08:47:14;;;;;;;18.17;16.30;;;20.70;88.00;;;;;;4007986;29;20512;-53
2023/09/17 08:49:55;;;;;;;17.23;15.52;;;20.70;88.00;;;;;;4012188;29;20569;-52
2023/09/17 08:52:41;;;;;;;16.63;14.98;;;20.80;88.00;;;;;;4012907;29;20081;-52
2023/09/17 08:55:23;;;;;;;17.70;15.90;;;20.80;87.90;;;;;;4012433;29;20052;-51
2023/09/17 08:58:12;;;;;;;16.17;14.50;;;20.80;87.90;;;;;;4012935;29;20075;-53
2023/09/17 09:00:58;;;;;;;15.70;14.20;;;20.80;87.80;;;;;;4012193;29;20113;-53
2023/09/17 09:03:41;;;;;;;16.02;14.35;;;20.80;87.70;;;;;;4012473;29;20065;-52
2023/09/17 09:06:25;;;;;;;15.25;13.63;;;20.80;87.50;;;;;;4012675;29;20065;-50
2023/09/17 09:09:06;;;;;;;15.35;13.10;;;20.80;87.50;;;;;;4013263;29;20132;-52
2023/09/17 09:11:48;;;;;;;16.65;12.93;;;20.80;87.20;;;;;;4012075;29;20076;-51
2023/09/17 09:14:29;;;;;;;13.73;12.00;;;20.80;86.80;;;;;;4011900;29;20080;-49
2023/09/17 09:17:11;;;;;;;13.75;12.32;;;20.80;86.50;;;;;;4012471;29;20064;-49
2023/09/17 09:19:55;;;;;;;13.23;11.88;;;20.80;86.20;;;;;;4012227;29;20898;-53
2023/09/17 09:22:36;;;;;;;12.70;11.38;;;20.80;86.00;;;;;;4010161;29;20065;-53
2023/09/17 09:25:18;;;;;;;13.80;11.68;;;20.90;86.00;;;;;;4011667;29;20048;-48
2023/09/17 09:28:00;;;;;;;14.63;11.27;;;20.80;85.80;;;;;;4013034;29;20064;-50
2023/09/17 09:30:44;;;;;;;13.30;11.23;;;20.80;85.60;;;;;;4000009;29;20060;-49
2023/09/17 09:33:26;;;;;;;12.70;11.45;;;21.00;85.60;;;;;;4001077;29;20124;-49
2023/09/17 09:36:09;;;;;;;12.15;10.98;;;21.00;85.60;;;;;;4012751;29;20116;-51
2023/09/17 09:38:50;;;;;;;14.52;13.05;;;21.00;85.40;;;;;;4012235;29;20068;-54
2023/09/17 09:41:32;;;;;;;16.88;14.80;;;21.10;85.30;;;;;;4011205;29;20052;-52
2023/09/17 09:44:14;;;;;;;12.30;11.00;;;21.10;85.10;;;;;;4011302;29;20060;-55
2023/09/17 09:46:57;;;;;;;12.70;11.40;;;21.20;84.90;;;;;;4012064;29;20061;-51
2023/09/17 09:49:42;;;;;;;12.55;11.35;;;21.20;84.80;;;;;;4012162;29;20060;-52
2023/09/17 09:52:25;;;;;;;13.60;12.20;;;21.20;84.50;;;;;;4011256;29;20548;-52
2023/09/17 09:55:07;;;;;;;14.02;11.63;;;21.20;84.50;;;;;;4011116;29;20090;-55
2023/09/17 09:57:49;;;;;;;12.80;11.43;;;21.20;84.30;;;;;;4011401;29;20064;-52
2023/09/17 10:00:32;;;;;;;12.02;10.63;;;21.20;84.30;;;;;;4012238;29;20053;-52
2023/09/17 10:03:13;;;;;;;13.07;11.68;;;21.20;84.10;;;;;;4012318;29;20064;-54
2023/09/17 10:06:03;;;;;;;12.50;11.30;;;21.20;84.60;;;;;;4012433;29;20096;-54
2023/09/17 10:08:47;;;;;;;12.77;11.48;;;21.20;83.70;;;;;;4012684;29;20052;-55
2023/09/17 10:11:30;;;;;;;12.40;10.25;;;21.20;83.50;;;;;;4011883;29;20060;-52
2023/09/17 10:14:11;;;;;;;11.13;10.02;;;21.20;83.20;;;;;;4012238;29;20061;-54
2023/09/17 10:16:54;;;;;;;11.52;10.40;;;21.20;83.00;;;;;;4011905;29;20071;-52
2023/09/17 10:19:36;;;;;;;12.10;11.00;;;21.20;83.00;;;;;;4011542;29;20065;-55
2023/09/17 10:22:18;;;;;;;13.02;10.75;;;21.20;83.10;;;;;;4011742;29;20488;-52
2023/09/17 10:25:04;;;;;;;11.73;10.52;;;21.20;83.10;;;;;;4011889;29;20132;-55
2023/09/17 10:27:46;;;;;;;12.35;11.15;;;21.20;83.20;;;;;;4011355;29;20108;-54
2023/09/17 10:30:27;;;;;;;13.50;11.43;;;21.20;83.30;;;;;;4011851;29;20128;-55
2023/09/17 10:33:09;;;;;;;;;;;21.20;83.30;;;;;;4012295;29;20105;-56
2023/09/17 10:35:51;;;;;;;13.63;12.32;;;21.20;83.50;;;;;;4012290;29;19932;-54
2023/09/17 10:38:35;;;;;;;14.35;13.02;;;21.20;83.60;;;;;;4000214;29;20064;-55
2023/09/17 10:41:22;;;;;;;14.38;13.07;;;21.30;84.10;;;;;;4010140;29;20142;-55
2023/09/17 10:44:04;;;;;;;15.00;13.48;;;21.30;85.10;;;;;;4014949;29;20057;-52
2023/09/17 10:46:48;;;;;;;16.30;13.63;;;21.30;84.40;;;;;;4014233;29;20065;-53
2023/09/17 10:49:32;;;;;;;15.60;14.00;;;21.30;84.50;;;;;;4013995;29;20056;-54
2023/09/17 10:52:13;;;;;;;16.42;14.70;;;21.30;84.70;;;;;;3997014;29;20437;-52
2023/09/17 10:54:54;;;;;;;15.85;13.73;;;21.30;85.10;;;;;;4014523;29;20059;-55
2023/09/17 10:57:40;;;;;;;15.07;13.55;;;21.30;85.10;;;;;;4006421;29;20568;-54
2023/09/17 11:00:24;;;;;;;16.65;13.35;;;21.30;85.20;;;;;;4014264;29;20061;-54
2023/09/17 11:03:06;;;;;;;14.85;13.35;;;21.30;85.10;;;;;;4015040;29;20057;-53
2023/09/17 11:05:49;;;;;;;15.07;12.93;;;21.40;85.20;;;;;;3999720;29;20512;-54
2023/09/17 11:08:30;;;;;;;16.45;14.10;;;21.40;85.30;;;;;;4005053;29;20097;-55
2023/09/17 11:11:13;;;;;;;;;;;21.30;85.30;;;;;;4015274;29;20060;-52
2023/09/17 11:13:56;;;;;;;15.38;13.43;;;21.40;85.20;;;;;;4014748;29;20271;-53
2023/09/17 11:16:39;;;;;;;15.98;14.45;;;21.30;85.10;;;;;;4013896;29;20069;-55
2023/09/17 11:19:22;;;;;;;17.20;15.05;;;21.30;85.50;;;;;;4012699;29;20088;-55
2023/09/17 11:22:11;;;;;;;17.20;15.38;;;21.30;86.70;;;;;;4013942;29;20049;-54
2023/09/17 11:24:52;;;;;;;18.33;16.45;;;21.40;86.70;;;;;;4013166;29;20442;-51
2023/09/17 11:27:52;;;;;;;17.88;16.05;;;21.40;86.80;;;;;;3997783;29;20748;-49
2023/09/17 11:30:57;;;;;;;18.70;15.90;;;21.40;87.50;;;;;;4005071;29;20064;-47
2023/09/17 11:33:39;;;;;;;17.58;15.77;;;21.50;87.90;;;;;;4012693;29;20516;-49
2023/09/17 11:36:20;;;;;;;16.98;15.32;;;21.50;87.80;;;;;;4013029;29;20056;-50
2023/09/17 11:39:04;;;;;;;;;;;21.60;88.60;;;;;;4013939;29;20136;-54
2023/09/17 11:41:48;;;;;;;16.73;14.93;;;21.60;88.40;;;;;;4013174;29;19970;-47
2023/09/17 11:44:31;;;;;;;15.85;14.20;;;21.60;88.10;;;;;;4013665;29;20056;-46
2023/09/17 11:47:14;;;;;;;15.25;13.80;;;21.70;88.10;;;;;;4012434;29;20508;-52
2023/09/17 11:49:56;;;;;;;15.02;13.65;;;21.70;88.30;;;;;;3998350;29;20060;-52
2023/09/17 11:52:37;;;;;;;16.30;14.70;;;21.70;87.80;;;;;;4006071;29;20056;-51
2023/09/17 11:55:22;;;;;;;;;;;21.80;87.30;;;;;;4013948;29;20511;-51
2023/09/17 11:58:17;;;;;;;16.05;14.43;;;21.80;86.90;;;;;;4012549;29;19935;-50
2023/09/17 12:00:58;;;;;;;17.23;13.93;;;21.80;87.00;;;;;;4012050;29;20052;-52
2023/09/17 12:03:40;;;;;;;15.63;14.02;;;21.80;86.90;;;;;;4013500;29;20140;-51
2023/09/17 12:06:22;;;;;;;16.02;14.05;;;21.80;87.00;;;;;;4013564;29;20052;-54
2023/09/17 12:09:10;;;;;;;;;;;21.80;87.00;;;;;;4002813;29;20060;-51
2023/09/17 12:11:51;;;;;;;15.98;14.35;;;21.80;86.80;;;;;;4013335;29;19947;-51
2023/09/17 12:14:33;;;;;;;15.98;14.40;;;21.80;86.60;;;;;;4003800;29;20105;-49
2023/09/17 12:17:14;;;;;;;15.82;14.32;;;21.80;87.00;;;;;;4006599;29;20060;-49
2023/09/17 12:20:12;;;;;;;;;;;21.70;87.10;;;;;;4014293;29;20065;-46
2023/09/17 12:22:57;;;;;;;15.30;13.80;;;21.70;87.00;;;;;;4012607;29;19931;-45
2023/09/17 12:25:45;;;;;;;14.93;13.55;;;21.70;87.30;;;;;;4013720;29;20052;-45
2023/09/17 12:28:27;;;;;;;17.17;14.85;;;21.70;87.60;;;;;;4013548;29;20053;-50
2023/09/17 12:31:10;;;;;;;15.25;13.75;;;21.70;88.10;;;;;;4013291;29;20052;-48
2023/09/17 12:33:52;;;;;;;17.83;15.93;;;21.80;88.20;;;;;;4013721;29;20052;-49
2023/09/17 12:36:36;;;;;;;17.63;15.82;;;21.80;88.70;;;;;;4013526;29;20064;-50
2023/09/17 12:39:16;;;;;;;16.85;15.10;;;21.90;88.50;;;;;;4013874;29;20512;-47
2023/09/17 12:41:57;;;;;;;16.80;15.15;;;21.90;88.50;;;;;;4012181;29;20437;-49
2023/09/17 12:44:38;;;;;;;18.90;15.90;;;21.90;88.40;;;;;;3998093;29;20069;-50
2023/09/17 12:47:20;;;;;;;18.42;16.20;;;21.90;88.30;;;;;;3997918;29;20516;-49
2023/09/17 12:50:04;;;;;;;19.52;15.70;;;21.90;88.40;;;;;;3997799;29;20052;-49
2023/09/17 12:52:47;;;;;;;18.88;15.60;;;21.90;88.20;;;;;;3997720;29;20053;-48
2023/09/17 12:55:28;;;;;;;17.58;15.35;;;22.00;87.90;;;;;;3997768;29;20056;-48
2023/09/17 12:58:09;;;;;;;20.00;16.50;;;22.00;87.70;;;;;;3997790;29;20520;-51
2023/09/17 13:00:50;;;;;;;17.23;15.52;;;22.00;87.70;;;;;;3997230;29;20084;-50
2023/09/17 13:03:31;;;;;;;18.85;16.13;;;22.00;87.70;;;;;;4010401;29;20144;-53
2023/09/17 13:06:12;;;;;;;18.92;16.92;;;22.00;87.80;;;;;;4017851;29;20056;-50
2023/09/17 13:08:55;;;;;;;16.88;15.18;;;22.00;88.20;;;;;;4012900;29;20488;-46
2023/09/17 13:11:36;;;;;;;17.63;15.82;;;22.10;88.40;;;;;;4012286;29;20198;-48
2023/09/17 13:14:18;;;;;;;19.83;17.42;;;22.10;88.70;;;;;;4012387;29;20198;-48
2023/09/17 13:16:59;;;;;;;18.90;16.90;;;22.20;88.90;;;;;;4012133;29;20064;-48
2023/09/17 13:19:40;;;;;;;17.67;15.95;;;22.20;88.70;;;;;;4012546;29;20153;-51
2023/09/17 13:22:21;;;;;;;;;;;22.20;88.40;;;;;;4013256;29;20110;-48
2023/09/17 13:25:04;;;;;;;17.77;15.47;;;22.30;88.30;;;;;;4012551;29;19931;-48
2023/09/17 13:27:46;;;;;;;18.23;14.90;;;22.30;87.80;;;;;;4013142;29;20442;-49
2023/09/17 13:30:28;;;;;;;17.90;16.02;;;22.40;88.10;;;;;;4012627;29;20412;-49
2023/09/17 13:33:11;;;;;;;17.35;15.52;;;22.30;88.10;;;;;;4012157;29;20198;-50
2023/09/17 13:35:53;;;;;;;16.70;15.00;;;22.40;88.10;;;;;;4012088;29;20079;-50
2023/09/17 13:38:34;;;;;;;18.35;16.33;;;22.40;88.10;;;;;;4012710;29;20064;-53
2023/09/17 13:41:21;;;;;;;20.05;16.00;;;22.40;88.90;;;;;;4012158;29;20100;-50
2023/09/17 13:44:01;;;;;;;18.45;15.25;;;22.50;88.10;;;;;;4012174;29;20052;-48
2023/09/17 13:46:46;;;;;;;17.92;15.70;;;22.50;87.50;;;;;;4012880;29;20694;-48
2023/09/17 13:49:28;;;;;;;17.83;16.02;;;22.50;87.40;;;;;;4011909;29;20130;-51
2023/09/17 13:52:09;;;;;;;;;;;22.50;86.80;;;;;;4012754;29;20060;-47
2023/09/17 13:54:50;;;;;;;16.55;14.95;;;22.50;86.70;;;;;;4011874;29;19934;-47
2023/09/17 13:57:33;;;;;;;;;;;22.40;86.30;;;;;;4012528;29;20060;-50